CPQ7 weather

Skeleton Lake Seaplane Base
Ontario, Canada

Public forecast

Using degrees Celsius for public forecast. Weather courtesy of forecast.io.

METAR (pilot weather report)

Closest report is Muskoka Airport, 16.4 nm (30.4 km) SSE. Retrieved 2019/07/21 20:00 UTC (23 minutes ago):

CYQA 212000Z AUTO 27012G18KT 240V310 9SM FEW043 26/15 A2987 RMK SLP115 DENSITY ALT 2400FT

TAF (pilot weather forecast)

Closest forecast is Muskoka Airport, 16.4 nm (30.4 km) SSE. Retrieved 2019/07/21 20:00 UTC (23 minutes ago):

TAF CYQA 211943Z 2120/2202 25010KT P6SM FEW040 RMK FCST BASED ON AUTO OBS. NXT FCST WILL BE ISSUED AT 221145Z